DFW weather

Dallas Fort Worth International Airport
Dallas-Fort Worth, Texas, United States

Public forecast

Using degrees Fahrenheit for public forecast. Weather courtesy of forecast.io.

METAR (pilot weather report)

Retrieved 2018/06/18 13:53 UTC (1 hour ago):

KDFW 181353Z 14008KT 10SM SCT015 BKN035 26/22 A3001 RMK AO2 SLP151 T02610222

TAF (pilot weather forecast)

Retrieved 2018/06/18 12:40 UTC (2 hours ago):

TAF KDFW 181138Z 1812/1918 14010KT P6SM FEW015 SCT025 OVC035 TEMPO 1812/1815 BKN025 FM181900 13015G20KT P6SM VCSH SCT035 BKN050 FM190100 14014KT P6SM SCT050 BKN080 FM190600 13011KT P6SM BKN020